sensor_id;sensor_type;location;lat;lon;timestamp;pressure;altitude;pressure_sealevel;temperature;humidity
15405;BME280;7801;48.124;11.590;2023-05-11T00:00:38;95252.28;;;10.56;100.00
15405;BME280;7801;48.124;11.590;2023-05-11T00:03:03;95254.72;;;10.53;100.00
15405;BME280;7801;48.124;11.590;2023-05-11T00:05:30;95246.69;;;10.58;100.00
15405;BME280;7801;48.124;11.590;2023-05-11T00:07:55;95245.59;;;10.73;100.00
15405;BME280;7801;48.124;11.590;2023-05-11T00:10:20;95253.06;;;10.71;100.00
15405;BME280;7801;48.124;11.590;2023-05-11T00:12:46;95250.13;;;10.72;100.00
15405;BME280;7801;48.124;11.590;2023-05-11T00:15:11;95251.87;;;10.36;100.00
15405;BME280;7801;48.124;11.590;2023-05-11T00:17:36;95246.41;;;10.59;100.00
15405;BME280;7801;48.124;11.590;2023-05-11T00:20:02;95238.53;;;10.54;100.00
15405;BME280;7801;48.124;11.590;2023-05-11T00:22:28;95241.69;;;10.56;100.00
15405;BME280;7801;48.124;11.590;2023-05-11T00:24:53;95248.53;;;10.71;100.00
15405;BME280;7801;48.124;11.590;2023-05-11T00:27:19;95234.88;;;10.64;100.00
15405;BME280;7801;48.124;11.590;2023-05-11T00:29:44;95242.84;;;10.64;100.00
15405;BME280;7801;48.124;11.590;2023-05-11T00:32:09;95240.59;;;10.57;100.00
15405;BME280;7801;48.124;11.590;2023-05-11T00:34:35;95233.22;;;10.54;100.00
15405;BME280;7801;48.124;11.590;2023-05-11T00:37:00;95232.81;;;10.47;100.00
15405;BME280;7801;48.124;11.590;2023-05-11T00:39:26;95224.94;;;10.42;100.00
15405;BME280;7801;48.124;11.590;2023-05-11T00:41:51;95230.88;;;10.39;100.00
15405;BME280;7801;48.124;11.590;2023-05-11T00:44:16;95224.00;;;10.38;100.00
15405;BME280;7801;48.124;11.590;2023-05-11T00:46:42;95235.00;;;10.59;100.00
15405;BME280;7801;48.124;11.590;2023-05-11T00:49:07;95226.72;;;10.47;100.00
15405;BME280;7801;48.124;11.590;2023-05-11T00:51:35;95225.53;;;10.25;100.00
15405;BME280;7801;48.124;11.590;2023-05-11T00:54:00;95223.38;;;10.27;100.00
15405;BME280;7801;48.124;11.590;2023-05-11T00:56:26;95216.31;;;10.37;100.00
15405;BME280;7801;48.124;11.590;2023-05-11T00:58:52;95219.56;;;10.47;100.00
15405;BME280;7801;48.124;11.590;2023-05-11T01:01:17;95224.56;;;10.49;100.00
15405;BME280;7801;48.124;11.590;2023-05-11T01:03:43;95222.13;;;10.52;100.00
15405;BME280;7801;48.124;11.590;2023-05-11T01:06:26;95227.31;;;10.44;100.00
15405;BME280;7801;48.124;11.590;2023-05-11T01:09:06;95221.78;;;10.13;100.00
15405;BME280;7801;48.124;11.590;2023-05-11T01:11:41;95227.81;;;10.32;100.00
15405;BME280;7801;48.124;11.590;2023-05-11T01:14:20;95212.97;;;10.31;100.00
15405;BME280;7801;48.124;11.590;2023-05-11T01:16:48;95220.06;;;10.36;100.00
15405;BME280;7801;48.124;11.590;2023-05-11T01:19:34;95218.25;;;10.17;100.00
15405;BME280;7801;48.124;11.590;2023-05-11T01:22:08;95213.47;;;10.33;100.00
15405;BME280;7801;48.124;11.590;2023-05-11T01:27:47;95217.91;;;10.51;100.00
15405;BME280;7801;48.124;11.590;2023-05-11T01:30:27;95215.31;;;10.60;100.00
15405;BME280;7801;48.124;11.590;2023-05-11T01:32:54;95210.91;;;10.69;100.00
15405;BME280;7801;48.124;11.590;2023-05-11T01:35:24;95208.38;;;10.50;100.00
15405;BME280;7801;48.124;11.590;2023-05-11T01:37:56;95218.38;;;10.40;100.00
15405;BME280;7801;48.124;11.590;2023-05-11T01:40:25;95206.41;;;10.28;100.00
15405;BME280;7801;48.124;11.590;2023-05-11T01:42:59;95208.38;;;10.37;100.00
15405;BME280;7801;48.124;11.590;2023-05-11T01:45:27;95206.31;;;10.33;100.00
15405;BME280;7801;48.124;11.590;2023-05-11T01:47:54;95202.56;;;10.35;100.00
15405;BME280;7801;48.124;11.590;2023-05-11T01:50:21;95204.16;;;10.36;100.00
15405;BME280;7801;48.124;11.590;2023-05-11T01:52:49;95207.47;;;10.27;100.00
15405;BME280;7801;48.124;11.590;2023-05-11T01:55:18;95205.56;;;10.14;100.00
15405;BME280;7801;48.124;11.590;2023-05-11T01:57:46;95208.72;;;10.16;100.00
15405;BME280;7801;48.124;11.590;2023-05-11T02:00:14;95202.66;;;10.29;100.00
15405;BME280;7801;48.124;11.590;2023-05-11T02:02:41;95205.00;;;10.17;100.00
15405;BME280;7801;48.124;11.590;2023-05-11T02:05:10;95207.34;;;10.19;100.00
15405;BME280;7801;48.124;11.590;2023-05-11T02:07:37;95210.22;;;10.22;100.00
15405;BME280;7801;48.124;11.590;2023-05-11T02:10:07;95202.06;;;10.19;100.00
15405;BME280;7801;48.124;11.590;2023-05-11T02:12:34;95198.03;;;10.21;100.00
15405;BME280;7801;48.124;11.590;2023-05-11T02:15:02;95203.62;;;10.20;100.00
15405;BME280;7801;48.124;11.590;2023-05-11T02:17:28;95205.97;;;10.21;100.00
15405;BME280;7801;48.124;11.590;2023-05-11T02:19:54;95208.47;;;9.99;100.00
15405;BME280;7801;48.124;11.590;2023-05-11T02:22:21;95205.69;;;10.23;100.00
15405;BME280;7801;48.124;11.590;2023-05-11T02:24:48;95205.09;;;10.40;100.00
15405;BME280;7801;48.124;11.590;2023-05-11T02:27:14;95202.72;;;10.11;100.00
15405;BME280;7801;48.124;11.590;2023-05-11T02:29:39;95204.16;;;10.03;100.00
15405;BME280;7801;48.124;11.590;2023-05-11T02:32:10;95197.78;;;9.90;100.00
15405;BME280;7801;48.124;11.590;2023-05-11T02:34:40;95194.94;;;10.00;100.00
15405;BME280;7801;48.124;11.590;2023-05-11T02:37:12;95198.19;;;10.11;100.00
15405;BME280;7801;48.124;11.590;2023-05-11T02:39:38;95192.63;;;10.13;100.00
15405;BME280;7801;48.124;11.590;2023-05-11T02:42:11;95196.38;;;10.25;100.00
15405;BME280;7801;48.124;11.590;2023-05-11T02:44:38;95198.69;;;10.13;100.00
15405;BME280;7801;48.124;11.590;2023-05-11T02:47:06;95190.56;;;10.23;100.00
15405;BME280;7801;48.124;11.590;2023-05-11T02:49:34;95195.06;;;10.09;100.00
15405;BME280;7801;48.124;11.590;2023-05-11T02:52:02;95184.00;;;10.35;100.00
15405;BME280;7801;48.124;11.590;2023-05-11T02:54:29;95196.38;;;10.25;100.00
15405;BME280;7801;48.124;11.590;2023-05-11T02:56:56;95190.50;;;10.28;100.00
15405;BME280;7801;48.124;11.590;2023-05-11T02:59:23;95186.94;;;10.19;100.00
15405;BME280;7801;48.124;11.590;2023-05-11T03:01:48;95188.91;;;10.41;100.00
15405;BME280;7801;48.124;11.590;2023-05-11T03:04:14;95192.75;;;10.49;100.00
15405;BME280;7801;48.124;11.590;2023-05-11T03:06:39;95192.75;;;10.49;100.00
15405;BME280;7801;48.124;11.590;2023-05-11T03:09:05;95190.69;;;10.46;100.00
15405;BME280;7801;48.124;11.590;2023-05-11T03:11:31;95187.84;;;10.28;100.00
15405;BME280;7801;48.124;11.590;2023-05-11T03:13:58;95193.47;;;10.08;100.00
15405;BME280;7801;48.124;11.590;2023-05-11T03:16:23;95189.09;;;10.17;100.00
15405;BME280;7801;48.124;11.590;2023-05-11T03:18:49;95188.78;;;10.19;100.00
15405;BME280;7801;48.124;11.590;2023-05-11T03:21:17;95186.06;;;10.24;100.00
15405;BME280;7801;48.124;11.590;2023-05-11T03:23:45;95185.97;;;10.29;100.00
15405;BME280;7801;48.124;11.590;2023-05-11T03:26:12;95187.22;;;10.18;100.00
15405;BME280;7801;48.124;11.590;2023-05-11T03:28:39;95185.44;;;10.13;100.00
15405;BME280;7801;48.124;11.590;2023-05-11T03:31:06;95180.72;;;10.10;100.00
15405;BME280;7801;48.124;11.590;2023-05-11T03:33:31;95179.25;;;10.04;100.00
15405;BME280;7801;48.124;11.590;2023-05-11T03:35:57;95184.50;;;9.77;100.00
15405;BME280;7801;48.124;11.590;2023-05-11T03:38:23;95174.50;;;9.74;100.00
15405;BME280;7801;48.124;11.590;2023-05-11T03:40:52;95175.59;;;10.00;100.00
15405;BME280;7801;48.124;11.590;2023-05-11T03:43:19;95180.91;;;10.00;100.00
15405;BME280;7801;48.124;11.590;2023-05-11T03:45:45;95169.50;;;9.99;100.00
15405;BME280;7801;48.124;11.590;2023-05-11T03:48:13;95173.34;;;9.93;100.00
15405;BME280;7801;48.124;11.590;2023-05-11T03:50:40;95165.34;;;9.80;100.00
15405;BME280;7801;48.124;11.590;2023-05-11T03:53:07;95167.34;;;9.74;100.00
15405;BME280;7801;48.124;11.590;2023-05-11T03:55:32;95166.66;;;9.82;100.00
15405;BME280;7801;48.124;11.590;2023-05-11T03:57:57;95162.97;;;9.64;100.00
15405;BME280;7801;48.124;11.590;2023-05-11T04:00:23;95171.66;;;9.84;100.00
15405;BME280;7801;48.124;11.590;2023-05-11T04:02:48;95169.19;;;9.74;100.00
15405;BME280;7801;48.124;11.590;2023-05-11T04:05:13;95164.19;;;9.72;100.00
15405;BME280;7801;48.124;11.590;2023-05-11T04:07:40;95166.22;;;9.61;100.00
15405;BME280;7801;48.124;11.590;2023-05-11T04:10:06;95165.91;;;9.63;100.00
15405;BME280;7801;48.124;11.590;2023-05-11T04:12:31;95157.19;;;9.62;100.00
15405;BME280;7801;48.124;11.590;2023-05-11T04:14:57;95158.31;;;9.75;100.00
15405;BME280;7801;48.124;11.590;2023-05-11T04:17:22;95155.78;;;9.97;100.00
15405;BME280;7801;48.124;11.590;2023-05-11T04:19:47;95158.81;;;9.91;100.00
15405;BME280;7801;48.124;11.590;2023-05-11T04:22:13;95152.91;;;9.80;100.00
15405;BME280;7801;48.124;11.590;2023-05-11T04:24:38;95158.69;;;9.69;100.00
15405;BME280;7801;48.124;11.590;2023-05-11T04:27:04;95159.47;;;9.69;100.00
15405;BME280;7801;48.124;11.590;2023-05-11T04:29:29;95159.09;;;9.76;100.00
15405;BME280;7801;48.124;11.590;2023-05-11T04:31:55;95159.69;;;9.86;100.00
15405;BME280;7801;48.124;11.590;2023-05-11T04:34:21;95166.06;;;9.72;100.00
15405;BME280;7801;48.124;11.590;2023-05-11T04:36:49;95174.78;;;9.72;100.00
15405;BME280;7801;48.124;11.590;2023-05-11T04:39:17;95161.19;;;9.60;100.00
15405;BME280;7801;48.124;11.590;2023-05-11T04:41:43;95170.97;;;9.46;100.00
15405;BME280;7801;48.124;11.590;2023-05-11T04:44:09;95169.63;;;9.48;100.00
15405;BME280;7801;48.124;11.590;2023-05-11T04:46:34;95166.50;;;9.60;100.00
15405;BME280;7801;48.124;11.590;2023-05-11T04:49:01;95168.84;;;9.61;100.00
15405;BME280;7801;48.124;11.590;2023-05-11T04:51:26;95173.53;;;9.51;100.00
15405;BME280;7801;48.124;11.590;2023-05-11T04:53:51;95169.63;;;9.48;100.00
15405;BME280;7801;48.124;11.590;2023-05-11T04:56:16;95173.91;;;9.44;100.00
15405;BME280;7801;48.124;11.590;2023-05-11T04:58:42;95176.41;;;9.54;100.00
15405;BME280;7801;48.124;11.590;2023-05-11T05:01:07;95176.06;;;9.42;100.00
15405;BME280;7801;48.124;11.590;2023-05-11T05:03:33;95173.12;;;9.44;100.00
15405;BME280;7801;48.124;11.590;2023-05-11T05:05:58;95174.84;;;9.53;100.00
15405;BME280;7801;48.124;11.590;2023-05-11T05:08:23;95171.00;;;9.59;100.00
15405;BME280;7801;48.124;11.590;2023-05-11T05:10:48;95175.66;;;9.81;100.00
15405;BME280;7801;48.124;11.590;2023-05-11T05:13:15;95175.16;;;9.65;100.00
15405;BME280;7801;48.124;11.590;2023-05-11T05:15:43;95169.78;;;9.71;100.00
15405;BME280;7801;48.124;11.590;2023-05-11T05:18:08;95169.50;;;9.86;100.00
15405;BME280;7801;48.124;11.590;2023-05-11T05:20:34;95174.66;;;9.63;100.00
15405;BME280;7801;48.124;11.590;2023-05-11T05:23:00;95173.91;;;9.44;100.00
15405;BME280;7801;48.124;11.590;2023-05-11T05:25:26;95170.38;;;9.35;100.00
15405;BME280;7801;48.124;11.590;2023-05-11T05:27:51;95176.50;;;9.63;100.00
15405;BME280;7801;48.124;11.590;2023-05-11T05:30:16;95180.91;;;10.00;100.00
15405;BME280;7801;48.124;11.590;2023-05-11T05:32:42;95175.06;;;10.44;100.00
15405;BME280;7801;48.124;11.590;2023-05-11T05:35:08;95184.09;;;10.43;100.00
15405;BME280;7801;48.124;11.590;2023-05-11T05:37:33;95181.09;;;10.99;100.00
15405;BME280;7801;48.124;11.590;2023-05-11T05:39:59;95174.81;;;10.95;100.00
15405;BME280;7801;48.124;11.590;2023-05-11T05:42:24;95195.44;;;10.98;100.00
15405;BME280;7801;48.124;11.590;2023-05-11T05:44:50;95185.84;;;11.47;100.00
15405;BME280;7801;48.124;11.590;2023-05-11T05:47:19;95188.25;;;11.35;100.00
15405;BME280;7801;48.124;11.590;2023-05-11T05:49:44;95173.03;;;11.71;100.00
15405;BME280;7801;48.124;11.590;2023-05-11T05:52:10;95186.91;;;11.68;100.00
15405;BME280;7801;48.124;11.590;2023-05-11T05:54:35;95186.09;;;11.82;100.00
15405;BME280;7801;48.124;11.590;2023-05-11T05:57:00;95181.69;;;11.55;100.00
15405;BME280;7801;48.124;11.590;2023-05-11T05:59:26;95190.66;;;11.67;100.00
15405;BME280;7801;48.124;11.590;2023-05-11T06:01:53;95187.69;;;11.83;100.00
15405;BME280;7801;48.124;11.590;2023-05-11T06:04:18;95188.97;;;11.49;100.00
15405;BME280;7801;48.124;11.590;2023-05-11T06:06:43;95195.16;;;11.81;100.00
15405;BME280;7801;48.124;11.590;2023-05-11T06:09:10;95188.59;;;11.64;100.00
15405;BME280;7801;48.124;11.590;2023-05-11T06:11:35;95189.16;;;11.30;100.00
15405;BME280;7801;48.124;11.590;2023-05-11T06:14:00;95188.75;;;11.37;100.00
15405;BME280;7801;48.124;11.590;2023-05-11T06:16:26;95195.16;;;11.22;100.00
15405;BME280;7801;48.124;11.590;2023-05-11T06:18:52;95191.63;;;11.27;100.00
15405;BME280;7801;48.124;11.590;2023-05-11T06:21:19;95198.97;;;11.30;100.00
15405;BME280;7801;48.124;11.590;2023-05-11T06:23:44;95194.41;;;11.66;100.00
15405;BME280;7801;48.124;11.590;2023-05-11T06:26:10;95191.41;;;11.37;100.00
15405;BME280;7801;48.124;11.590;2023-05-11T06:28:36;95197.13;;;11.30;100.00
15405;BME280;7801;48.124;11.590;2023-05-11T06:31:01;95197.88;;;11.09;100.00
15405;BME280;7801;48.124;11.590;2023-05-11T06:33:28;95202.50;;;11.61;100.00
15405;BME280;7801;48.124;11.590;2023-05-11T06:35:53;95193.28;;;11.59;100.00
15405;BME280;7801;48.124;11.590;2023-05-11T06:38:18;95200.00;;;11.65;100.00
15405;BME280;7801;48.124;11.590;2023-05-11T06:40:44;95194.72;;;11.87;100.00
15405;BME280;7801;48.124;11.590;2023-05-11T06:43:09;95200.31;;;11.77;100.00
15405;BME280;7801;48.124;11.590;2023-05-11T06:45:34;95197.44;;;11.51;100.00
15405;BME280;7801;48.124;11.590;2023-05-11T06:48:00;95200.22;;;11.91;100.00
15405;BME280;7801;48.124;11.590;2023-05-11T06:50:26;95195.03;;;11.63;100.00
15405;BME280;7801;48.124;11.590;2023-05-11T06:52:51;95196.47;;;11.69;100.00
15405;BME280;7801;48.124;11.590;2023-05-11T06:55:18;95196.22;;;11.57;100.00
15405;BME280;7801;48.124;11.590;2023-05-11T06:57:43;95194.53;;;11.61;100.00
15405;BME280;7801;48.124;11.590;2023-05-11T07:00:09;95185.16;;;11.86;100.00
15405;BME280;7801;48.124;11.590;2023-05-11T07:02:34;95194.28;;;11.49;100.00
15405;BME280;7801;48.124;11.590;2023-05-11T07:05:00;95198.75;;;11.18;100.00
15405;BME280;7801;48.124;11.590;2023-05-11T07:07:25;95201.53;;;10.85;100.00
15405;BME280;7801;48.124;11.590;2023-05-11T07:09:50;95201.72;;;11.02;100.00
15405;BME280;7801;48.124;11.590;2023-05-11T07:12:15;95197.75;;;11.14;100.00
15405;BME280;7801;48.124;11.590;2023-05-11T07:14:41;95199.19;;;10.97;100.00
15405;BME280;7801;48.124;11.590;2023-05-11T07:17:06;95192.66;;;11.17;100.00
15405;BME280;7801;48.124;11.590;2023-05-11T07:19:32;95202.56;;;11.48;100.00
15405;BME280;7801;48.124;11.590;2023-05-11T07:21:57;95193.88;;;11.56;100.00
15405;BME280;7801;48.124;11.590;2023-05-11T07:24:22;95198.16;;;11.65;100.00
15405;BME280;7801;48.124;11.590;2023-05-11T07:26:48;95195.03;;;11.63;99.48
15405;BME280;7801;48.124;11.590;2023-05-11T07:29:14;95190.66;;;11.90;98.66
15405;BME280;7801;48.124;11.590;2023-05-11T07:31:40;95195.97;;;11.67;97.71
15405;BME280;7801;48.124;11.590;2023-05-11T07:34:06;95192.72;;;11.93;97.52
15405;BME280;7801;48.124;11.590;2023-05-11T07:36:32;95192.41;;;11.72;98.00
15405;BME280;7801;48.124;11.590;2023-05-11T07:38:57;95198.97;;;12.19;97.30
15405;BME280;7801;48.124;11.590;2023-05-11T07:41:23;95191.37;;;12.04;96.84
15405;BME280;7801;48.124;11.590;2023-05-11T07:43:51;95201.09;;;12.09;96.76
15405;BME280;7801;48.124;11.590;2023-05-11T07:46:17;95200.28;;;11.99;96.83
15405;BME280;7801;48.124;11.590;2023-05-11T07:48:42;95196.09;;;11.85;97.49
15405;BME280;7801;48.124;11.590;2023-05-11T07:51:07;95205.31;;;11.65;97.68
15405;BME280;7801;48.124;11.590;2023-05-11T07:53:33;95201.44;;;11.26;99.94
15405;BME280;7801;48.124;11.590;2023-05-11T07:55:59;95214.78;;;11.13;100.00
15405;BME280;7801;48.124;11.590;2023-05-11T07:58:24;95209.72;;;11.25;100.00
15405;BME280;7801;48.124;11.590;2023-05-11T08:00:50;95206.91;;;11.08;100.00
15405;BME280;7801;48.124;11.590;2023-05-11T08:03:15;95200.00;;;11.20;100.00
15405;BME280;7801;48.124;11.590;2023-05-11T08:05:40;95202.28;;;11.13;100.00
15405;BME280;7801;48.124;11.590;2023-05-11T08:08:06;95208.81;;;10.93;100.00
15405;BME280;7801;48.124;11.590;2023-05-11T08:10:31;95202.47;;;11.17;100.00
15405;BME280;7801;48.124;11.590;2023-05-11T08:12:57;95202.38;;;11.22;100.00
15405;BME280;7801;48.124;11.590;2023-05-11T08:15:22;95207.09;;;10.75;100.00
15405;BME280;7801;48.124;11.590;2023-05-11T08:17:48;95200.38;;;10.91;100.00
15405;BME280;7801;48.124;11.590;2023-05-11T08:20:13;95197.59;;;11.32;100.00
15405;BME280;7801;48.124;11.590;2023-05-11T08:22:38;95202.62;;;11.34;100.00
15405;BME280;7801;48.124;11.590;2023-05-11T08:25:04;95197.97;;;11.40;100.00
15405;BME280;7801;48.124;11.590;2023-05-11T08:27:30;95205.44;;;11.15;100.00
15405;BME280;7801;48.124;11.590;2023-05-11T08:29:55;95200.56;;;10.95;100.00
15405;BME280;7801;48.124;11.590;2023-05-11T08:32:20;95195.16;;;10.86;100.00
15405;BME280;7801;48.124;11.590;2023-05-11T08:34:45;95191.94;;;10.62;100.00
15405;BME280;7801;48.124;11.590;2023-05-11T08:37:11;95190.78;;;10.54;100.00
15405;BME280;7801;48.124;11.590;2023-05-11T08:39:36;95187.94;;;10.51;100.00
15405;BME280;7801;48.124;11.590;2023-05-11T08:42:02;95181.75;;;10.55;100.00
15405;BME280;7801;48.124;11.590;2023-05-11T08:44:31;95187.16;;;10.37;100.00
15405;BME280;7801;48.124;11.590;2023-05-11T08:46:57;95190.19;;;10.30;100.00
15405;BME280;7801;48.124;11.590;2023-05-11T08:49:24;95187.53;;;10.30;100.00
15405;BME280;7801;48.124;11.590;2023-05-11T08:51:49;95186.53;;;10.40;100.00
15405;BME280;7801;48.124;11.590;2023-05-11T08:54:15;95184.69;;;10.40;100.00
15405;BME280;7801;48.124;11.590;2023-05-11T08:56:40;95184.50;;;10.50;100.00
15405;BME280;7801;48.124;11.590;2023-05-11T08:59:06;95190.56;;;10.64;100.00
15405;BME280;7801;48.124;11.590;2023-05-11T09:01:34;95190.75;;;10.68;100.00
15405;BME280;7801;48.124;11.590;2023-05-11T09:03:59;95185.25;;;10.78;100.00
15405;BME280;7801;48.124;11.590;2023-05-11T09:06:26;95193.88;;;10.97;100.00
15405;BME280;7801;48.124;11.590;2023-05-11T09:08:52;95194.16;;;10.96;100.00
15405;BME280;7801;48.124;11.590;2023-05-11T09:11:19;95192.06;;;11.07;100.00
15405;BME280;7801;48.124;11.590;2023-05-11T09:13:45;95193.19;;;11.28;100.00
15405;BME280;7801;48.124;11.590;2023-05-11T09:16:10;95192.37;;;11.41;100.00
15405;BME280;7801;48.124;11.590;2023-05-11T09:18:57;95191.00;;;11.30;100.00
15405;BME280;7801;48.124;11.590;2023-05-11T09:21:23;95193.13;;;11.19;100.00
15405;BME280;7801;48.124;11.590;2023-05-11T09:23:49;95188.50;;;10.75;100.00
15405;BME280;7801;48.124;11.590;2023-05-11T09:26:16;95199.91;;;10.62;100.00
15405;BME280;7801;48.124;11.590;2023-05-11T09:28:58;95197.34;;;10.71;100.00
15405;BME280;7801;48.124;11.590;2023-05-11T09:31:39;95193.72;;;10.53;100.00
15405;BME280;7801;48.124;11.590;2023-05-11T09:36:40;95190.00;;;10.54;100.00
15405;BME280;7801;48.124;11.590;2023-05-11T09:39:06;95185.56;;;10.49;100.00
15405;BME280;7801;48.124;11.590;2023-05-11T09:41:31;95186.44;;;10.72;100.00
15405;BME280;7801;48.124;11.590;2023-05-11T09:44:07;95188.88;;;10.82;100.00
15405;BME280;7801;48.124;11.590;2023-05-11T09:46:35;95183.94;;;10.89;100.00
15405;BME280;7801;48.124;11.590;2023-05-11T09:49:01;95187.19;;;10.86;100.00
15405;BME280;7801;48.124;11.590;2023-05-11T09:51:33;95185.63;;;10.85;100.00
15405;BME280;7801;48.124;11.590;2023-05-11T09:53:59;95190.56;;;10.78;100.00
15405;BME280;7801;48.124;11.590;2023-05-11T09:56:48;95190.34;;;10.88;100.00
15405;BME280;7801;48.124;11.590;2023-05-11T09:59:15;95178.19;;;10.74;100.00
15405;BME280;7801;48.124;11.590;2023-05-11T10:01:41;95186.53;;;10.67;100.00
15405;BME280;7801;48.124;11.590;2023-05-11T10:04:07;95180.53;;;10.75;100.00
15405;BME280;7801;48.124;11.590;2023-05-11T10:06:47;95182.78;;;10.82;100.00
15405;BME280;7801;48.124;11.590;2023-05-11T10:09:18;95178.09;;;10.65;100.00
15405;BME280;7801;48.124;11.590;2023-05-11T10:11:48;95185.25;;;10.64;100.00
15405;BME280;7801;48.124;11.590;2023-05-11T10:14:15;95177.31;;;10.51;100.00
15405;BME280;7801;48.124;11.590;2023-05-11T10:16:41;95175.13;;;10.66;100.00
15405;BME280;7801;48.124;11.590;2023-05-11T10:19:07;95180.31;;;10.85;100.00
15405;BME280;7801;48.124;11.590;2023-05-11T10:21:34;95185.41;;;10.95;100.00
15405;BME280;7801;48.124;11.590;2023-05-11T10:24:01;95178.09;;;11.15;100.00
15405;BME280;7801;48.124;11.590;2023-05-11T10:26:27;95187.47;;;10.98;100.00
15405;BME280;7801;48.124;11.590;2023-05-11T10:28:54;95178.69;;;11.12;100.00
15405;BME280;7801;48.124;11.590;2023-05-11T10:31:21;95179.66;;;11.16;100.00
15405;BME280;7801;48.124;11.590;2023-05-11T10:33:50;95176.56;;;11.22;100.00
15405;BME280;7801;48.124;11.590;2023-05-11T10:36:16;95171.31;;;11.09;100.00
15405;BME280;7801;48.124;11.590;2023-05-11T10:38:42;95178.78;;;11.07;100.00
15405;BME280;7801;48.124;11.590;2023-05-11T10:41:22;95171.81;;;11.11;100.00
15405;BME280;7801;48.124;11.590;2023-05-11T10:44:06;95172.16;;;10.95;100.00
15405;BME280;7801;48.124;11.590;2023-05-11T10:54:51;95176.03;;;11.12;100.00
15405;BME280;7801;48.124;11.590;2023-05-11T11:02:36;95163.34;;;11.09;100.00
15405;BME280;7801;48.124;11.590;2023-05-11T11:05:01;95174.25;;;11.21;100.00
15405;BME280;7801;48.124;11.590;2023-05-11T11:07:30;95169.22;;;11.19;100.00
15405;BME280;7801;48.124;11.590;2023-05-11T11:10:00;95167.00;;;11.35;100.00
15405;BME280;7801;48.124;11.590;2023-05-11T11:12:30;95171.56;;;11.43;100.00
15405;BME280;7801;48.124;11.590;2023-05-11T11:17:29;95169.22;;;11.64;100.00
15405;BME280;7801;48.124;11.590;2023-05-11T11:19:56;95170.00;;;11.87;100.00
15405;BME280;7801;48.124;11.590;2023-05-11T11:25:00;95170.97;;;11.68;100.00
15405;BME280;7801;48.124;11.590;2023-05-11T11:32:45;95166.09;;;12.15;100.00
15405;BME280;7801;48.124;11.590;2023-05-11T11:38:10;95162.72;;;11.48;100.00
15405;BME280;7801;48.124;11.590;2023-05-11T11:40:40;95166.13;;;11.93;100.00
15405;BME280;7801;48.124;11.590;2023-05-11T11:43:10;95160.56;;;12.03;100.00
15405;BME280;7801;48.124;11.590;2023-05-11T11:45:37;95163.25;;;12.12;100.00
15405;BME280;7801;48.124;11.590;2023-05-11T11:48:13;95173.34;;;12.23;100.00
15405;BME280;7801;48.124;11.590;2023-05-11T11:50:41;95166.75;;;11.90;100.00
15405;BME280;7801;48.124;11.590;2023-05-11T11:53:09;95171.56;;;11.88;100.00
15405;BME280;7801;48.124;11.590;2023-05-11T11:55:46;95171.34;;;11.31;100.00
15405;BME280;7801;48.124;11.590;2023-05-11T12:01:29;95167.81;;;11.66;100.00
15405;BME280;7801;48.124;11.590;2023-05-11T12:04:15;95159.25;;;11.69;100.00
15405;BME280;7801;48.124;11.590;2023-05-11T12:06:44;95159.81;;;11.80;100.00
15405;BME280;7801;48.124;11.590;2023-05-11T12:09:18;95164.88;;;11.68;100.00
15405;BME280;7801;48.124;11.590;2023-05-11T12:11:45;95168.31;;;11.46;100.00
15405;BME280;7801;48.124;11.590;2023-05-11T12:14:11;95152.81;;;11.40;100.00
15405;BME280;7801;48.124;11.590;2023-05-11T12:16:37;95160.97;;;11.21;100.00
15405;BME280;7801;48.124;11.590;2023-05-11T12:19:02;95156.50;;;11.30;100.00
15405;BME280;7801;48.124;11.590;2023-05-11T12:21:30;95157.53;;;11.43;100.00
15405;BME280;7801;48.124;11.590;2023-05-11T12:24:04;95161.56;;;11.18;100.00
15405;BME280;7801;48.124;11.590;2023-05-11T12:26:31;95158.75;;;11.36;100.00
15405;BME280;7801;48.124;11.590;2023-05-11T12:29:26;95159.75;;;11.49;100.00
15405;BME280;7801;48.124;11.590;2023-05-11T12:31:51;95152.16;;;11.79;100.00
15405;BME280;7801;48.124;11.590;2023-05-11T12:34:19;95149.50;;;11.79;100.00
15405;BME280;7801;48.124;11.590;2023-05-11T12:36:47;95151.53;;;11.59;100.00
15405;BME280;7801;48.124;11.590;2023-05-11T12:39:20;95147.44;;;11.53;100.00
15405;BME280;7801;48.124;11.590;2023-05-11T12:41:47;95145.09;;;11.52;100.00
15405;BME280;7801;48.124;11.590;2023-05-11T12:44:14;95148.16;;;11.45;100.00
15405;BME280;7801;48.124;11.590;2023-05-11T12:46:40;95144.00;;;11.53;100.00
15405;BME280;7801;48.124;11.590;2023-05-11T12:49:06;95140.25;;;11.54;100.00
15405;BME280;7801;48.124;11.590;2023-05-11T12:52:04;95138.47;;;11.41;100.00
15405;BME280;7801;48.124;11.590;2023-05-11T12:54:37;95136.81;;;11.31;100.00
15405;BME280;7801;48.124;11.590;2023-05-11T12:57:04;95135.25;;;11.52;100.00
15405;BME280;7801;48.124;11.590;2023-05-11T12:59:38;95134.28;;;11.48;100.00
15405;BME280;7801;48.124;11.590;2023-05-11T13:02:16;95129.75;;;11.49;100.00
15405;BME280;7801;48.124;11.590;2023-05-11T13:04:42;95141.75;;;11.68;100.00
15405;BME280;7801;48.124;11.590;2023-05-11T13:07:09;95130.13;;;11.56;100.00
15405;BME280;7801;48.124;11.590;2023-05-11T13:09:36;95133.16;;;11.71;100.00
15405;BME280;7801;48.124;11.590;2023-05-11T13:12:17;95134.53;;;11.91;100.00
15405;BME280;7801;48.124;11.590;2023-05-11T13:15:04;95135.19;;;11.97;100.00
15405;BME280;7801;48.124;11.590;2023-05-11T13:17:31;95119.31;;;12.14;100.00
15405;BME280;7801;48.124;11.590;2023-05-11T13:20:26;95122.03;;;11.92;100.00
15405;BME280;7801;48.124;11.590;2023-05-11T13:23:24;95122.37;;;11.99;100.00
15405;BME280;7801;48.124;11.590;2023-05-11T13:25:51;95123.31;;;11.94;100.00
15405;BME280;7801;48.124;11.590;2023-05-11T13:28:20;95124.38;;;11.93;100.00
15405;BME280;7801;48.124;11.590;2023-05-11T13:30:46;95121.44;;;11.95;100.00